sensor_id;sensor_type;location;lat;lon;timestamp;pressure;altitude;pressure_sealevel;temperature;humidity
27805;BME280;15183;51.350;11.102;2023-04-06T00:00:00;100509.47;;;5.36;53.11
27805;BME280;15183;51.350;11.102;2023-04-06T00:02:27;100488.47;;;5.28;53.63
27805;BME280;15183;51.350;11.102;2023-04-06T00:04:53;100480.84;;;5.18;53.28
27805;BME280;15183;51.350;11.102;2023-04-06T00:07:20;100491.78;;;5.22;53.65
27805;BME280;15183;51.350;11.102;2023-04-06T00:09:46;100482.81;;;5.16;53.57
27805;BME280;15183;51.350;11.102;2023-04-06T00:12:13;100494.63;;;5.20;53.50
27805;BME280;15183;51.350;11.102;2023-04-06T00:14:40;100475.16;;;5.06;53.77
27805;BME280;15183;51.350;11.102;2023-04-06T00:17:06;100497.75;;;5.16;53.24
27805;BME280;15183;51.350;11.102;2023-04-06T00:19:33;100469.75;;;5.00;53.40
27805;BME280;15183;51.350;11.102;2023-04-06T00:21:59;100462.06;;;4.98;53.66
27805;BME280;15183;51.350;11.102;2023-04-06T00:24:25;100499.28;;;5.33;53.71
27805;BME280;15183;51.350;11.102;2023-04-06T00:26:52;100380.94;;;4.57;53.60
27805;BME280;15183;51.350;11.102;2023-04-06T00:29:19;100454.66;;;5.02;54.14
27805;BME280;15183;51.350;11.102;2023-04-06T00:31:45;100487.72;;;5.19;53.92
27805;BME280;15183;51.350;11.102;2023-04-06T00:34:12;100466.00;;;5.02;54.17
27805;BME280;15183;51.350;11.102;2023-04-06T00:36:38;100455.50;;;5.02;53.69
27805;BME280;15183;51.350;11.102;2023-04-06T00:39:05;100490.66;;;5.25;53.95
27805;BME280;15183;51.350;11.102;2023-04-06T00:41:31;100454.78;;;5.09;53.57
27805;BME280;15183;51.350;11.102;2023-04-06T00:43:58;100481.63;;;5.19;53.77
27805;BME280;15183;51.350;11.102;2023-04-06T00:46:24;100445.50;;;4.98;53.42
27805;BME280;15183;51.350;11.102;2023-04-06T00:48:51;100487.19;;;5.24;53.63
27805;BME280;15183;51.350;11.102;2023-04-06T00:51:17;100458.56;;;5.06;53.70
27805;BME280;15183;51.350;11.102;2023-04-06T00:53:43;100466.41;;;5.14;53.80
27805;BME280;15183;51.350;11.102;2023-04-06T00:56:11;100477.22;;;5.19;53.77
27805;BME280;15183;51.350;11.102;2023-04-06T00:58:37;100447.75;;;5.01;53.91
27805;BME280;15183;51.350;11.102;2023-04-06T01:01:04;100462.97;;;5.14;53.84
27805;BME280;15183;51.350;11.102;2023-04-06T01:03:31;100465.34;;;5.00;53.69
27805;BME280;15183;51.350;11.102;2023-04-06T01:05:58;100465.50;;;4.99;54.19
27805;BME280;15183;51.350;11.102;2023-04-06T01:08:24;100451.00;;;4.80;54.17
27805;BME280;15183;51.350;11.102;2023-04-06T01:10:51;100461.00;;;4.84;54.32
27805;BME280;15183;51.350;11.102;2023-04-06T01:13:18;100467.59;;;4.80;54.20
27805;BME280;15183;51.350;11.102;2023-04-06T01:15:44;100454.47;;;4.72;54.26
27805;BME280;15183;51.350;11.102;2023-04-06T01:18:14;100455.66;;;4.69;54.31
27805;BME280;15183;51.350;11.102;2023-04-06T01:20:40;100451.44;;;4.60;54.42
27805;BME280;15183;51.350;11.102;2023-04-06T01:23:06;100408.56;;;4.36;54.30
27805;BME280;15183;51.350;11.102;2023-04-06T01:25:33;100430.16;;;4.46;54.60
27805;BME280;15183;51.350;11.102;2023-04-06T01:27:59;100435.06;;;4.49;54.59
27805;BME280;15183;51.350;11.102;2023-04-06T01:30:26;100408.56;;;4.36;54.27
27805;BME280;15183;51.350;11.102;2023-04-06T01:32:52;100443.25;;;4.55;54.53
27805;BME280;15183;51.350;11.102;2023-04-06T01:35:19;100445.22;;;4.53;54.30
27805;BME280;15183;51.350;11.102;2023-04-06T01:37:46;100407.75;;;4.27;53.86
27805;BME280;15183;51.350;11.102;2023-04-06T01:40:12;100365.13;;;3.85;54.32
27805;BME280;15183;51.350;11.102;2023-04-06T01:42:39;100442.16;;;4.41;54.67
27805;BME280;15183;51.350;11.102;2023-04-06T01:45:06;100435.13;;;4.33;54.48
27805;BME280;15183;51.350;11.102;2023-04-06T01:47:33;100415.63;;;4.27;54.47
27805;BME280;15183;51.350;11.102;2023-04-06T01:49:59;100359.56;;;3.88;54.53
27805;BME280;15183;51.350;11.102;2023-04-06T01:52:26;100420.84;;;4.35;54.80
27805;BME280;15183;51.350;11.102;2023-04-06T01:54:52;100436.09;;;4.40;54.63
27805;BME280;15183;51.350;11.102;2023-04-06T01:57:19;100416.13;;;4.31;54.63
27805;BME280;15183;51.350;11.102;2023-04-06T01:59:46;100417.41;;;4.35;54.57
27805;BME280;15183;51.350;11.102;2023-04-06T02:02:12;100414.50;;;4.30;54.33
27805;BME280;15183;51.350;11.102;2023-04-06T02:04:39;100416.59;;;4.34;54.30
27805;BME280;15183;51.350;11.102;2023-04-06T02:07:05;100427.06;;;4.34;54.51
27805;BME280;15183;51.350;11.102;2023-04-06T02:09:31;100402.06;;;4.15;54.44
27805;BME280;15183;51.350;11.102;2023-04-06T02:11:58;100429.38;;;4.29;54.83
27805;BME280;15183;51.350;11.102;2023-04-06T02:14:25;100417.63;;;4.17;54.67
27805;BME280;15183;51.350;11.102;2023-04-06T02:16:52;100423.53;;;4.19;54.55
27805;BME280;15183;51.350;11.102;2023-04-06T02:19:18;100433.72;;;4.14;54.90
27805;BME280;15183;51.350;11.102;2023-04-06T02:21:45;100430.91;;;4.15;54.77
27805;BME280;15183;51.350;11.102;2023-04-06T02:24:11;100444.69;;;4.17;54.81
27805;BME280;15183;51.350;11.102;2023-04-06T02:26:37;100389.19;;;3.89;54.83
27805;BME280;15183;51.350;11.102;2023-04-06T02:29:04;100385.13;;;3.78;54.53
27805;BME280;15183;51.350;11.102;2023-04-06T02:31:30;100417.66;;;4.09;54.76
27805;BME280;15183;51.350;11.102;2023-04-06T02:33:57;100355.84;;;3.58;55.05
27805;BME280;15183;51.350;11.102;2023-04-06T02:36:23;100370.88;;;3.81;54.75
27805;BME280;15183;51.350;11.102;2023-04-06T02:38:49;100421.44;;;4.06;54.79
27805;BME280;15183;51.350;11.102;2023-04-06T02:41:16;100415.88;;;4.01;54.73
27805;BME280;15183;51.350;11.102;2023-04-06T02:43:42;100403.25;;;3.96;54.90
27805;BME280;15183;51.350;11.102;2023-04-06T02:46:09;100420.41;;;4.15;54.63
27805;BME280;15183;51.350;11.102;2023-04-06T02:48:35;100383.47;;;3.94;54.57
27805;BME280;15183;51.350;11.102;2023-04-06T02:51:03;100397.03;;;4.05;54.55
27805;BME280;15183;51.350;11.102;2023-04-06T02:53:29;100432.88;;;4.22;54.79
27805;BME280;15183;51.350;11.102;2023-04-06T02:55:56;100389.34;;;3.96;54.79
27805;BME280;15183;51.350;11.102;2023-04-06T02:58:22;100441.22;;;4.25;54.76
27805;BME280;15183;51.350;11.102;2023-04-06T03:00:49;100427.00;;;4.19;54.97
27805;BME280;15183;51.350;11.102;2023-04-06T03:03:16;100427.47;;;4.15;54.92
27805;BME280;15183;51.350;11.102;2023-04-06T03:05:42;100433.53;;;4.15;54.79
27805;BME280;15183;51.350;11.102;2023-04-06T03:08:09;100412.44;;;4.00;54.94
27805;BME280;15183;51.350;11.102;2023-04-06T03:10:35;100410.03;;;3.82;54.79
27805;BME280;15183;51.350;11.102;2023-04-06T03:13:02;100412.00;;;3.72;54.93
27805;BME280;15183;51.350;11.102;2023-04-06T03:15:28;100405.63;;;3.66;55.13
27805;BME280;15183;51.350;11.102;2023-04-06T03:17:54;100431.31;;;3.71;55.40
27805;BME280;15183;51.350;11.102;2023-04-06T03:20:21;100423.13;;;3.66;55.37
27805;BME280;15183;51.350;11.102;2023-04-06T03:22:47;100422.16;;;3.58;55.58
27805;BME280;15183;51.350;11.102;2023-04-06T03:25:14;100348.34;;;3.13;55.60
27805;BME280;15183;51.350;11.102;2023-04-06T03:27:40;100398.75;;;3.40;55.66
27805;BME280;15183;51.350;11.102;2023-04-06T03:30:07;100417.91;;;3.49;55.72
27805;BME280;15183;51.350;11.102;2023-04-06T03:32:33;100421.34;;;3.50;55.80
27805;BME280;15183;51.350;11.102;2023-04-06T03:35:00;100410.53;;;3.44;55.51
27805;BME280;15183;51.350;11.102;2023-04-06T03:37:26;100417.75;;;3.51;55.89
27805;BME280;15183;51.350;11.102;2023-04-06T03:39:53;100422.50;;;3.55;55.79
27805;BME280;15183;51.350;11.102;2023-04-06T03:42:19;100420.53;;;3.49;55.70
27805;BME280;15183;51.350;11.102;2023-04-06T03:44:45;100387.63;;;3.30;55.13
27805;BME280;15183;51.350;11.102;2023-04-06T03:47:12;100401.38;;;3.32;55.48
27805;BME280;15183;51.350;11.102;2023-04-06T03:49:38;100402.53;;;3.29;55.36
27805;BME280;15183;51.350;11.102;2023-04-06T03:52:05;100423.66;;;3.36;55.42
27805;BME280;15183;51.350;11.102;2023-04-06T03:54:31;100428.56;;;3.39;55.30
27805;BME280;15183;51.350;11.102;2023-04-06T03:56:57;100431.69;;;3.43;55.43
27805;BME280;15183;51.350;11.102;2023-04-06T03:59:24;100436.75;;;3.44;55.32
27805;BME280;15183;51.350;11.102;2023-04-06T04:01:50;100403.66;;;3.18;55.36
27805;BME280;15183;51.350;11.102;2023-04-06T04:04:17;100445.41;;;3.37;55.39
27805;BME280;15183;51.350;11.102;2023-04-06T04:06:43;100443.75;;;3.27;55.76
27805;BME280;15183;51.350;11.102;2023-04-06T04:09:10;100427.22;;;3.18;55.76
27805;BME280;15183;51.350;11.102;2023-04-06T04:11:36;100413.13;;;3.03;55.74
27805;BME280;15183;51.350;11.102;2023-04-06T04:14:02;100414.13;;;3.02;55.32
27805;BME280;15183;51.350;11.102;2023-04-06T04:16:29;100444.88;;;3.16;55.98
27805;BME280;15183;51.350;11.102;2023-04-06T04:18:56;100434.41;;;3.00;55.58
27805;BME280;15183;51.350;11.102;2023-04-06T04:21:24;100413.41;;;2.83;56.08
27805;BME280;15183;51.350;11.102;2023-04-06T04:23:52;100343.19;;;2.37;55.87
27805;BME280;15183;51.350;11.102;2023-04-06T04:26:18;100455.03;;;3.11;55.94
27805;BME280;15183;51.350;11.102;2023-04-06T04:28:46;100435.19;;;3.00;56.32
27805;BME280;15183;51.350;11.102;2023-04-06T04:31:12;100445.06;;;3.15;55.85
27805;BME280;15183;51.350;11.102;2023-04-06T04:33:38;100406.25;;;2.94;55.77
27805;BME280;15183;51.350;11.102;2023-04-06T04:36:05;100436.56;;;3.04;55.76
27805;BME280;15183;51.350;11.102;2023-04-06T04:38:31;100447.50;;;3.08;56.00
27805;BME280;15183;51.350;11.102;2023-04-06T04:40:58;100427.53;;;2.99;55.72
27805;BME280;15183;51.350;11.102;2023-04-06T04:43:24;100432.59;;;3.00;55.71
27805;BME280;15183;51.350;11.102;2023-04-06T04:45:51;100445.06;;;3.07;56.03
27805;BME280;15183;51.350;11.102;2023-04-06T04:48:18;100442.91;;;3.10;56.48
27805;BME280;15183;51.350;11.102;2023-04-06T04:50:44;100444.09;;;3.16;55.95
27805;BME280;15183;51.350;11.102;2023-04-06T04:53:11;100424.44;;;3.12;55.77
27805;BME280;15183;51.350;11.102;2023-04-06T04:55:37;100462.09;;;3.36;55.94
27805;BME280;15183;51.350;11.102;2023-04-06T04:58:04;100438.06;;;3.32;56.15
27805;BME280;15183;51.350;11.102;2023-04-06T05:00:30;100453.09;;;3.55;56.19
27805;BME280;15183;51.350;11.102;2023-04-06T05:02:56;100448.38;;;3.58;56.12
27805;BME280;15183;51.350;11.102;2023-04-06T05:05:23;100459.66;;;3.75;56.19
27805;BME280;15183;51.350;11.102;2023-04-06T05:07:49;100446.38;;;3.77;56.51
27805;BME280;15183;51.350;11.102;2023-04-06T05:10:16;100463.72;;;4.03;56.15
27805;BME280;15183;51.350;11.102;2023-04-06T05:12:42;100466.16;;;4.13;56.09
27805;BME280;15183;51.350;11.102;2023-04-06T05:15:09;100457.47;;;4.20;55.97
27805;BME280;15183;51.350;11.102;2023-04-06T05:17:36;100395.28;;;3.81;56.32
27805;BME280;15183;51.350;11.102;2023-04-06T05:20:02;100450.72;;;4.26;56.31
27805;BME280;15183;51.350;11.102;2023-04-06T05:22:29;100469.84;;;4.43;56.39
27805;BME280;15183;51.350;11.102;2023-04-06T05:24:55;100440.03;;;4.36;56.42
27805;BME280;15183;51.350;11.102;2023-04-06T05:27:22;100456.00;;;4.66;56.74
27805;BME280;15183;51.350;11.102;2023-04-06T05:29:49;100453.56;;;4.88;56.20
27805;BME280;15183;51.350;11.102;2023-04-06T05:32:15;100474.63;;;5.11;56.37
27805;BME280;15183;51.350;11.102;2023-04-06T05:34:42;100384.06;;;4.52;55.78
27805;BME280;15183;51.350;11.102;2023-04-06T05:37:08;100477.91;;;5.13;56.31
27805;BME280;15183;51.350;11.102;2023-04-06T05:39:34;100461.19;;;5.06;56.12
27805;BME280;15183;51.350;11.102;2023-04-06T05:42:04;100479.28;;;5.32;56.39
27805;BME280;15183;51.350;11.102;2023-04-06T05:44:31;100464.59;;;5.38;56.04
27805;BME280;15183;51.350;11.102;2023-04-06T05:46:58;100478.84;;;5.67;56.79
27805;BME280;15183;51.350;11.102;2023-04-06T05:49:24;100482.53;;;5.96;56.46
27805;BME280;15183;51.350;11.102;2023-04-06T05:51:52;100471.06;;;6.12;56.78
27805;BME280;15183;51.350;11.102;2023-04-06T05:54:18;100480.41;;;6.30;56.75
27805;BME280;15183;51.350;11.102;2023-04-06T05:56:45;100485.53;;;6.31;56.24
27805;BME280;15183;51.350;11.102;2023-04-06T05:59:11;100489.22;;;6.37;56.29
27805;BME280;15183;51.350;11.102;2023-04-06T06:01:37;100493.22;;;6.33;56.22
27805;BME280;15183;51.350;11.102;2023-04-06T06:04:04;100472.25;;;6.10;55.86
27805;BME280;15183;51.350;11.102;2023-04-06T06:06:30;100479.31;;;6.24;55.94
27805;BME280;15183;51.350;11.102;2023-04-06T06:08:57;100470.63;;;6.23;56.10
27805;BME280;15183;51.350;11.102;2023-04-06T06:11:27;100416.59;;;5.98;56.03
27805;BME280;15183;51.350;11.102;2023-04-06T06:13:54;100488.59;;;6.65;55.92
27805;BME280;15183;51.350;11.102;2023-04-06T06:16:20;100466.97;;;6.70;55.91
27805;BME280;15183;51.350;11.102;2023-04-06T06:18:46;100476.13;;;6.89;56.36
27805;BME280;15183;51.350;11.102;2023-04-06T06:21:13;100454.84;;;6.90;56.49
27805;BME280;15183;51.350;11.102;2023-04-06T06:23:42;100469.22;;;7.09;56.75
27805;BME280;15183;51.350;11.102;2023-04-06T06:26:09;100484.25;;;7.31;56.87
27805;BME280;15183;51.350;11.102;2023-04-06T06:28:35;100483.94;;;7.41;56.66
27805;BME280;15183;51.350;11.102;2023-04-06T06:31:02;100494.81;;;7.52;56.60
27805;BME280;15183;51.350;11.102;2023-04-06T06:33:28;100481.31;;;7.62;56.99
27805;BME280;15183;51.350;11.102;2023-04-06T06:35:55;100474.88;;;7.72;57.04
27805;BME280;15183;51.350;11.102;2023-04-06T06:38:21;100464.41;;;7.78;56.80
27805;BME280;15183;51.350;11.102;2023-04-06T06:40:47;100464.56;;;7.99;57.03
27805;BME280;15183;51.350;11.102;2023-04-06T06:43:14;100460.34;;;8.11;57.36
27805;BME280;15183;51.350;11.102;2023-04-06T06:45:41;100467.38;;;8.32;57.13
27805;BME280;15183;51.350;11.102;2023-04-06T06:48:08;100488.47;;;8.54;56.99
27805;BME280;15183;51.350;11.102;2023-04-06T06:50:34;100476.50;;;8.58;57.06
27805;BME280;15183;51.350;11.102;2023-04-06T06:53:00;100466.16;;;8.70;56.93
27805;BME280;15183;51.350;11.102;2023-04-06T06:55:27;100442.78;;;8.67;56.54
27805;BME280;15183;51.350;11.102;2023-04-06T06:57:53;100423.00;;;8.49;56.49
27805;BME280;15183;51.350;11.102;2023-04-06T07:00:20;100485.78;;;8.96;56.21
27805;BME280;15183;51.350;11.102;2023-04-06T07:02:50;100486.41;;;9.05;56.31
27805;BME280;15183;51.350;11.102;2023-04-06T07:05:16;100475.25;;;9.16;56.49
27805;BME280;15183;51.350;11.102;2023-04-06T07:07:43;100478.56;;;9.45;56.39
27805;BME280;15183;51.350;11.102;2023-04-06T07:10:10;100482.84;;;9.80;56.62
27805;BME280;15183;51.350;11.102;2023-04-06T07:12:37;100486.28;;;10.14;56.48
27805;BME280;15183;51.350;11.102;2023-04-06T07:15:03;100460.75;;;10.33;56.43
27805;BME280;15183;51.350;11.102;2023-04-06T07:17:31;100458.66;;;10.69;56.43
27805;BME280;15183;51.350;11.102;2023-04-06T07:19:57;100452.56;;;11.00;55.47
27805;BME280;15183;51.350;11.102;2023-04-06T07:22:23;100471.50;;;11.36;55.31
27805;BME280;15183;51.350;11.102;2023-04-06T07:24:50;100459.94;;;11.56;54.81
27805;BME280;15183;51.350;11.102;2023-04-06T07:27:17;100471.22;;;11.77;54.04
27805;BME280;15183;51.350;11.102;2023-04-06T07:29:44;100467.81;;;11.95;53.67
27805;BME280;15183;51.350;11.102;2023-04-06T07:32:13;100468.88;;;12.12;53.48
27805;BME280;15183;51.350;11.102;2023-04-06T07:34:39;100467.88;;;12.32;53.45
27805;BME280;15183;51.350;11.102;2023-04-06T07:37:06;100477.84;;;12.55;53.17
27805;BME280;15183;51.350;11.102;2023-04-06T07:39:34;100470.50;;;12.69;52.56
27805;BME280;15183;51.350;11.102;2023-04-06T07:42:00;100463.59;;;12.80;52.50
27805;BME280;15183;51.350;11.102;2023-04-06T07:44:27;100454.28;;;12.90;51.90
27805;BME280;15183;51.350;11.102;2023-04-06T07:46:53;100478.31;;;13.13;51.91
27805;BME280;15183;51.350;11.102;2023-04-06T07:49:20;100448.44;;;13.11;51.26
27805;BME280;15183;51.350;11.102;2023-04-06T07:51:47;100455.81;;;13.28;50.86
27805;BME280;15183;51.350;11.102;2023-04-06T07:54:13;100457.66;;;13.39;50.12
27805;BME280;15183;51.350;11.102;2023-04-06T07:56:39;100431.13;;;13.21;49.92
27805;BME280;15183;51.350;11.102;2023-04-06T07:59:06;100461.53;;;13.43;49.10
27805;BME280;15183;51.350;11.102;2023-04-06T08:01:32;100452.50;;;13.44;48.84
27805;BME280;15183;51.350;11.102;2023-04-06T08:03:59;100445.50;;;13.31;48.12
27805;BME280;15183;51.350;11.102;2023-04-06T08:06:27;100455.44;;;13.24;47.76
27805;BME280;15183;51.350;11.102;2023-04-06T08:08:54;100458.88;;;13.25;47.77
27805;BME280;15183;51.350;11.102;2023-04-06T08:11:20;100469.31;;;13.26;47.68
27805;BME280;15183;51.350;11.102;2023-04-06T08:13:47;100445.47;;;13.20;47.45
27805;BME280;15183;51.350;11.102;2023-04-06T08:16:13;100448.25;;;13.25;47.02
27805;BME280;15183;51.350;11.102;2023-04-06T08:18:41;100457.53;;;13.34;47.17
27805;BME280;15183;51.350;11.102;2023-04-06T08:21:07;100461.13;;;13.40;46.86
27805;BME280;15183;51.350;11.102;2023-04-06T08:23:34;100454.75;;;13.41;46.68
27805;BME280;15183;51.350;11.102;2023-04-06T08:26:01;100444.00;;;13.36;46.41
27805;BME280;15183;51.350;11.102;2023-04-06T08:28:27;100463.16;;;13.44;46.43
27805;BME280;15183;51.350;11.102;2023-04-06T08:30:54;100440.88;;;13.27;45.90
27805;BME280;15183;51.350;11.102;2023-04-06T08:33:20;100466.44;;;13.40;45.98
27805;BME280;15183;51.350;11.102;2023-04-06T08:35:47;100443.75;;;13.25;45.62
27805;BME280;15183;51.350;11.102;2023-04-06T08:38:13;100456.97;;;13.32;45.40
27805;BME280;15183;51.350;11.102;2023-04-06T08:40:40;100446.19;;;13.27;45.21
27805;BME280;15183;51.350;11.102;2023-04-06T08:43:13;100440.72;;;13.22;44.67
27805;BME280;15183;51.350;11.102;2023-04-06T08:45:41;100456.72;;;13.34;44.62
27805;BME280;15183;51.350;11.102;2023-04-06T08:48:09;100467.28;;;13.40;44.72
27805;BME280;15183;51.350;11.102;2023-04-06T08:50:36;100446.19;;;13.27;44.50
27805;BME280;15183;51.350;11.102;2023-04-06T08:53:04;100455.81;;;13.40;44.49
27805;BME280;15183;51.350;11.102;2023-04-06T08:55:32;100453.13;;;13.40;44.49
27805;BME280;15183;51.350;11.102;2023-04-06T08:57:59;100453.72;;;13.42;44.08
27805;BME280;15183;51.350;11.102;2023-04-06T09:00:27;100459.22;;;13.47;44.12
27805;BME280;15183;51.350;11.102;2023-04-06T09:02:55;100450.78;;;13.50;44.00
27805;BME280;15183;51.350;11.102;2023-04-06T09:05:24;100453.44;;;13.62;44.33
27805;BME280;15183;51.350;11.102;2023-04-06T09:07:51;100421.81;;;13.54;44.16
27805;BME280;15183;51.350;11.102;2023-04-06T09:10:18;100428.66;;;13.62;43.97
27805;BME280;15183;51.350;11.102;2023-04-06T09:12:44;100436.53;;;13.80;43.95
27805;BME280;15183;51.350;11.102;2023-04-06T09:15:20;100438.41;;;13.92;43.41
27805;BME280;15183;51.350;11.102;2023-04-06T09:17:47;100443.59;;;14.10;43.83
27805;BME280;15183;51.350;11.102;2023-04-06T09:20:13;100433.97;;;14.21;43.23
27805;BME280;15183;51.350;11.102;2023-04-06T09:22:40;100382.00;;;13.95;43.07
27805;BME280;15183;51.350;11.102;2023-04-06T09:25:09;100419.00;;;14.32;43.04
27805;BME280;15183;51.350;11.102;2023-04-06T09:27:37;100441.03;;;14.68;42.75
27805;BME280;15183;51.350;11.102;2023-04-06T09:30:09;100436.94;;;14.78;42.42
27805;BME280;15183;51.350;11.102;2023-04-06T09:32:50;100421.28;;;14.81;41.95
27805;BME280;15183;51.350;11.102;2023-04-06T09:35:17;100347.13;;;14.37;41.84
27805;BME280;15183;51.350;11.102;2023-04-06T09:37:47;100410.38;;;14.83;41.39
27805;BME280;15183;51.350;11.102;2023-04-06T09:40:14;100431.81;;;15.05;42.13
27805;BME280;15183;51.350;11.102;2023-04-06T09:42:46;100411.44;;;14.99;40.98
27805;BME280;15183;51.350;11.102;2023-04-06T09:45:13;100415.16;;;14.98;41.37
27805;BME280;15183;51.350;11.102;2023-04-06T09:47:44;100397.94;;;14.88;41.14
27805;BME280;15183;51.350;11.102;2023-04-06T09:50:13;100391.59;;;14.78;40.52
27805;BME280;15183;51.350;11.102;2023-04-06T09:52:50;100393.88;;;14.86;40.69
27805;BME280;15183;51.350;11.102;2023-04-06T09:55:36;100407.16;;;14.98;40.90
27805;BME280;15183;51.350;11.102;2023-04-06T09:58:12;100403.03;;;15.07;40.92
27805;BME280;15183;51.350;11.102;2023-04-06T10:01:06;100396.50;;;15.15;41.08
27805;BME280;15183;51.350;11.102;2023-04-06T10:06:23;100383.06;;;15.44;40.18
27805;BME280;15183;51.350;11.102;2023-04-06T10:08:55;100382.78;;;15.62;39.29
27805;BME280;15183;51.350;11.102;2023-04-06T10:11:22;100390.22;;;15.77;38.75
27805;BME280;15183;51.350;11.102;2023-04-06T10:13:50;100385.03;;;15.71;39.12
27805;BME280;15183;51.350;11.102;2023-04-06T10:16:17;100373.94;;;15.79;39.01
27805;BME280;15183;51.350;11.102;2023-04-06T10:18:48;100398.44;;;16.10;39.13
27805;BME280;15183;51.350;11.102;2023-04-06T10:21:24;100386.28;;;16.25;38.82
27805;BME280;15183;51.350;11.102;2023-04-06T10:23:59;100404.44;;;16.45;38.84
27805;BME280;15183;51.350;11.102;2023-04-06T10:26:26;100391.03;;;16.67;38.66
27805;BME280;15183;51.350;11.102;2023-04-06T10:28:53;100402.19;;;16.86;37.70
27805;BME280;15183;51.350;11.102;2023-04-06T10:31:27;100402.22;;;16.91;37.15
27805;BME280;15183;51.350;11.102;2023-04-06T10:33:59;100391.50;;;16.91;36.78
27805;BME280;15183;51.350;11.102;2023-04-06T10:36:32;100371.66;;;16.87;37.08
27805;BME280;15183;51.350;11.102;2023-04-06T10:39:02;100389.91;;;16.90;36.99
27805;BME280;15183;51.350;11.102;2023-04-06T10:41:42;100354.97;;;16.75;37.02
27805;BME280;15183;51.350;11.102;2023-04-06T10:44:23;100380.84;;;16.97;36.97
27805;BME280;15183;51.350;11.102;2023-04-06T10:46:59;100394.69;;;17.16;36.85
27805;BME280;15183;51.350;11.102;2023-04-06T10:49:28;100348.16;;;16.95;37.17
27805;BME280;15183;51.350;11.102;2023-04-06T10:51:56;100381.59;;;17.19;37.61
27805;BME280;15183;51.350;11.102;2023-04-06T10:54:25;100401.00;;;17.37;37.06
27805;BME280;15183;51.350;11.102;2023-04-06T10:56:52;100398.94;;;17.44;36.65
27805;BME280;15183;51.350;11.102;2023-04-06T10:59:22;100384.97;;;17.42;36.84
27805;BME280;15183;51.350;11.102;2023-04-06T11:01:50;100372.69;;;17.46;36.98
27805;BME280;15183;51.350;11.102;2023-04-06T11:04:18;100366.53;;;17.51;36.85
27805;BME280;15183;51.350;11.102;2023-04-06T11:06:48;100366.34;;;17.63;36.53
27805;BME280;15183;51.350;11.102;2023-04-06T11:09:29;100372.56;;;17.69;36.85
27805;BME280;15183;51.350;11.102;2023-04-06T11:11:57;100371.78;;;17.78;36.24
27805;BME280;15183;51.350;11.102;2023-04-06T11:14:24;100372.38;;;17.86;35.98
27805;BME280;15183;51.350;11.102;2023-04-06T11:16:50;100353.28;;;17.77;35.79
27805;BME280;15183;51.350;11.102;2023-04-06T11:19:17;100294.94;;;17.36;36.17
27805;BME280;15183;51.350;11.102;2023-04-06T11:21:48;100354.69;;;17.90;35.36
27805;BME280;15183;51.350;11.102;2023-04-06T11:24:23;100342.53;;;17.67;34.92
27805;BME280;15183;51.350;11.102;2023-04-06T11:26:59;100344.38;;;17.66;35.35
27805;BME280;15183;51.350;11.102;2023-04-06T11:29:30;100340.31;;;17.58;35.50
27805;BME280;15183;51.350;11.102;2023-04-06T11:32:03;100343.09;;;17.74;35.54
27805;BME280;15183;51.350;11.102;2023-04-06T11:34:33;100349.78;;;17.76;35.65
27805;BME280;15183;51.350;11.102;2023-04-06T11:37:11;100344.19;;;17.78;35.11
27805;BME280;15183;51.350;11.102;2023-04-06T11:40:01;100348.78;;;17.88;35.10
27805;BME280;15183;51.350;11.102;2023-04-06T11:42:28;100330.28;;;17.86;35.72
27805;BME280;15183;51.350;11.102;2023-04-06T11:44:57;100314.47;;;17.85;35.22
27805;BME280;15183;51.350;11.102;2023-04-06T11:47:36;100342.19;;;18.06;35.90
27805;BME280;15183;51.350;11.102;2023-04-06T11:50:12;100324.72;;;18.03;35.67
27805;BME280;15183;51.350;11.102;2023-04-06T11:52:41;100319.66;;;18.07;35.83
27805;BME280;15183;51.350;11.102;2023-04-06T11:55:16;100249.28;;;17.69;35.29
27805;BME280;15183;51.350;11.102;2023-04-06T11:57:43;100328.28;;;18.30;34.98
27805;BME280;15183;51.350;11.102;2023-04-06T12:00:11;100318.91;;;18.27;35.41
27805;BME280;15183;51.350;11.102;2023-04-06T12:02:39;100325.88;;;18.28;34.94
27805;BME280;15183;51.350;11.102;2023-04-06T12:05:06;100329.13;;;18.35;35.20
27805;BME280;15183;51.350;11.102;2023-04-06T12:07:34;100263.34;;;18.02;35.05
27805;BME280;15183;51.350;11.102;2023-04-06T12:10:02;100302.28;;;18.35;34.54
27805;BME280;15183;51.350;11.102;2023-04-06T12:12:29;100298.47;;;18.11;34.44
27805;BME280;15183;51.350;11.102;2023-04-06T12:14:56;100272.19;;;18.02;34.36
27805;BME280;15183;51.350;11.102;2023-04-06T12:17:23;100303.56;;;18.07;34.62
27805;BME280;15183;51.350;11.102;2023-04-06T12:19:50;100278.03;;;17.89;35.18
27805;BME280;15183;51.350;11.102;2023-04-06T12:22:18;100288.03;;;18.09;34.56
27805;BME280;15183;51.350;11.102;2023-04-06T12:24:44;100308.69;;;18.19;35.25
27805;BME280;15183;51.350;11.102;2023-04-06T12:27:11;100304.44;;;18.28;35.18
27805;BME280;15183;51.350;11.102;2023-04-06T12:29:38;100289.66;;;18.31;34.73
27805;BME280;15183;51.350;11.102;2023-04-06T12:32:04;100244.78;;;17.95;34.08
27805;BME280;15183;51.350;11.102;2023-04-06T12:34:32;100279.47;;;18.28;34.58
27805;BME280;15183;51.350;11.102;2023-04-06T12:36:58;100283.78;;;18.39;35.13
27805;BME280;15183;51.350;11.102;2023-04-06T12:39:27;100268.22;;;18.41;34.73
27805;BME280;15183;51.350;11.102;2023-04-06T12:41:53;100284.88;;;18.54;34.22
27805;BME280;15183;51.350;11.102;2023-04-06T12:44:20;100293.69;;;18.39;34.58
27805;BME280;15183;51.350;11.102;2023-04-06T12:46:46;100274.38;;;18.26;34.23
27805;BME280;15183;51.350;11.102;2023-04-06T12:49:13;100278.66;;;18.22;34.44